PWSweather.com
Personal Weather Stations
Station Observations
PORTLG2
PortalegrePT

PortalegrePT

Lat: 39.2764932, Lon: -7.423681600000009

Elevation: 1312

Station Type: Davis Vantage Vue

Latest ConditionsUpdated 8:40:01 PM GMT Monday, Sep 23, 2019
Currently Today's Max Today's Min Today's Average
Temperature 67.6°F19.8°C 75.7°F24.3°C 54.6°F12.6°C 64.8°F18.2°C
Dew Point 55.4°F13.0°C 55.6°F13.1°C 46.6°F8.1°C 51.4°F10.8°C
Winds 2.3 mph N3.7 kmh N 9.2 mph -14.8 kmh - - 2.6 mph 4.2 kmh
Wind Gusts 3.5 mph5.6 kmh 11.5 mph18.5 kmh - -
Humidity 65% 86% 38% 65%
Pressure 30.16 in1021.3 mb 30.20 in1022.7 mb 30.12 in1020.0 mb -
Hour Temp Dew Point Humidity Winds Wind Gusts Pressure Precip Precip Rate Daily Precip Total
08:40 PM 67.6°F19.8°C 55.4°F13.0°C 65% 2.3 mph N3.7 kmh N 3.5 mph5.6 kmh 30.16 in1021.3 mb - 0.00 in0.0 mm 0.00 in0.0 mm
08:30 PM 67.8°F19.9°C 55.6°F13.1°C 65% 2.3 mph N3.7 kmh N 3.5 mph5.6 kmh 30.16 in1021.3 mb - 0.00 in0.0 mm 0.00 in0.0 mm
08:20 PM 67.8°F19.9°C 55.2°F12.9°C 64% 2.3 mph N3.7 kmh N 3.5 mph5.6 kmh 30.16 in1021.3 mb - 0.00 in0.0 mm 0.00 in0.0 mm
08:10 PM 68.3°F20.2°C 55.2°F12.9°C 63% 2.3 mph N3.7 kmh N 3.5 mph5.6 kmh 30.16 in1021.3 mb - 0.00 in0.0 mm 0.00 in0.0 mm
08:00 PM 68.7°F20.4°C 54.7°F12.6°C 61% 2.3 mph NNW3.7 kmh NNW 4.6 mph7.4 kmh 30.16 in1021.3 mb - 0.00 in0.0 mm 0.00 in0.0 mm
07:50 PM 69.4°F20.8°C 54.9°F12.7°C 60% 3.5 mph NW5.6 kmh NW 3.5 mph5.6 kmh 30.16 in1021.3 mb - 0.00 in0.0 mm 0.00 in0.0 mm
07:40 PM 69.7°F20.9°C 54.3°F12.4°C 58% 4.6 mph NW7.4 kmh NW 5.8 mph9.3 kmh 30.16 in1021.3 mb - 0.00 in0.0 mm 0.00 in0.0 mm
07:30 PM 69.9°F21.1°C 53.0°F11.7°C 55% 4.6 mph NW7.4 kmh NW 8.1 mph13.0 kmh 30.15 in1021.0 mb - 0.00 in0.0 mm 0.00 in0.0 mm
07:20 PM 70.4°F21.3°C 51.9°F11.1°C 52% 2.3 mph WNW3.7 kmh WNW 3.5 mph5.6 kmh 30.15 in1021.0 mb - 0.00 in0.0 mm 0.00 in0.0 mm
07:10 PM 70.6°F21.4°C 51.6°F10.9°C 51% 4.6 mph NW7.4 kmh NW 5.8 mph9.3 kmh 30.15 in1021.0 mb - 0.00 in0.0 mm 0.00 in0.0 mm
07:00 PM 70.8°F21.6°C 51.8°F11.0°C 51% 2.3 mph NNW3.7 kmh NNW 5.8 mph9.3 kmh 30.15 in1021.0 mb - 0.00 in0.0 mm 0.00 in0.0 mm
06:50 PM 71.1°F21.7°C 52.0°F11.1°C 51% 3.5 mph NW5.6 kmh NW 5.8 mph9.3 kmh 30.14 in1020.7 mb - 0.00 in0.0 mm 0.00 in0.0 mm
06:40 PM 71.5°F21.9°C 52.4°F11.3°C 51% 3.5 mph NW5.6 kmh NW 5.8 mph9.3 kmh 30.14 in1020.7 mb - 0.00 in0.0 mm 0.00 in0.0 mm
06:30 PM 72.2°F22.3°C 52.0°F11.1°C 49% 3.5 mph NW5.6 kmh NW 4.6 mph7.4 kmh 30.14 in1020.7 mb - 0.00 in0.0 mm 0.00 in0.0 mm
06:20 PM 73.1°F22.8°C 52.3°F11.3°C 48% 4.6 mph W7.4 kmh W 5.8 mph9.3 kmh 30.15 in1021.0 mb - 0.00 in0.0 mm 0.00 in0.0 mm
06:10 PM 73.8°F23.2°C 52.3°F11.3°C 47% 3.5 mph W5.6 kmh W 4.6 mph7.4 kmh 30.14 in1020.7 mb - 0.00 in0.0 mm 0.00 in0.0 mm
06:00 PM 74.4°F23.6°C 52.3°F11.3°C 46% 5.8 mph WSW9.3 kmh WSW 6.9 mph11.1 kmh 30.14 in1020.7 mb - 0.00 in0.0 mm 0.00 in0.0 mm
05:50 PM 74.9°F23.8°C 52.7°F11.5°C 46% 3.5 mph WSW5.6 kmh WSW 4.6 mph7.4 kmh 30.14 in1020.7 mb - 0.00 in0.0 mm 0.00 in0.0 mm
05:40 PM 74.8°F23.8°C 52.6°F11.4°C 46% 3.5 mph W5.6 kmh W 4.6 mph7.4 kmh 30.14 in1020.7 mb - 0.00 in0.0 mm 0.00 in0.0 mm
05:30 PM 75.0°F23.9°C 51.6°F10.9°C 44% 4.6 mph W7.4 kmh W 5.8 mph9.3 kmh 30.14 in1020.7 mb - 0.00 in0.0 mm 0.00 in0.0 mm
05:20 PM 75.3°F24.1°C 51.2°F10.7°C 43% 8.1 mph W13.0 kmh W 8.1 mph13.0 kmh 30.14 in1020.7 mb - 0.00 in0.0 mm 0.00 in0.0 mm
05:10 PM 75.3°F24.1°C 51.9°F11.1°C 44% 5.8 mph W9.3 kmh W 6.9 mph11.1 kmh 30.14 in1020.7 mb - 0.00 in0.0 mm 0.00 in0.0 mm
05:00 PM 75.5°F24.2°C 52.1°F11.2°C 44% 6.9 mph WSW11.1 kmh WSW 8.1 mph13.0 kmh 30.14 in1020.7 mb - 0.00 in0.0 mm 0.00 in0.0 mm
04:50 PM 75.4°F24.1°C 51.4°F10.8°C 43% 5.8 mph WSW9.3 kmh WSW 5.8 mph9.3 kmh 30.14 in1020.7 mb - 0.00 in0.0 mm 0.00 in0.0 mm
04:40 PM 75.3°F24.1°C 51.3°F10.7°C 43% 4.6 mph W7.4 kmh W 3.5 mph5.6 kmh 30.14 in1020.7 mb - 0.00 in0.0 mm 0.00 in0.0 mm
04:30 PM 75.4°F24.1°C 51.4°F10.8°C 43% 6.9 mph WSW11.1 kmh WSW 6.9 mph11.1 kmh 30.14 in1020.7 mb - 0.00 in0.0 mm 0.00 in0.0 mm
04:20 PM 75.3°F24.1°C 50.6°F10.3°C 42% 5.8 mph W9.3 kmh W 5.8 mph9.3 kmh 30.14 in1020.7 mb - 0.00 in0.0 mm 0.00 in0.0 mm
04:10 PM 75.3°F24.1°C 50.6°F10.3°C 42% 9.2 mph WSW14.8 kmh WSW 11.5 mph18.5 kmh 30.14 in1020.7 mb - 0.00 in0.0 mm 0.00 in0.0 mm
04:00 PM 75.4°F24.1°C 50.1°F10.1°C 41% 2.3 mph NW3.7 kmh NW 3.5 mph5.6 kmh 30.14 in1020.7 mb - 0.00 in0.0 mm 0.00 in0.0 mm
03:50 PM 75.5°F24.2°C 49.5°F9.7°C 40% 5.8 mph WNW9.3 kmh WNW 9.2 mph14.8 kmh 30.14 in1020.7 mb - 0.00 in0.0 mm 0.00 in0.0 mm
03:40 PM 75.7°F24.3°C 49.0°F9.4°C 39% 6.9 mph SW11.1 kmh SW 8.1 mph13.0 kmh 30.14 in1020.7 mb - 0.00 in0.0 mm 0.00 in0.0 mm
03:30 PM 75.7°F24.3°C 49.6°F9.8°C 40% 4.6 mph W7.4 kmh W 11.5 mph18.5 kmh 30.14 in1020.7 mb - 0.00 in0.0 mm 0.00 in0.0 mm
03:20 PM 75.3°F24.1°C 48.6°F9.2°C 39% 6.9 mph SW11.1 kmh SW 8.1 mph13.0 kmh 30.14 in1020.7 mb - 0.00 in0.0 mm 0.00 in0.0 mm
03:10 PM 74.8°F23.8°C 47.5°F8.6°C 38% 3.5 mph SSW5.6 kmh SSW 6.9 mph11.1 kmh 30.14 in1020.7 mb - 0.00 in0.0 mm 0.00 in0.0 mm
03:00 PM 74.7°F23.7°C 48.1°F8.9°C 39% 5.8 mph WSW9.3 kmh WSW 5.8 mph9.3 kmh 30.14 in1020.7 mb - 0.00 in0.0 mm 0.00 in0.0 mm
02:50 PM 74.8°F23.8°C 47.5°F8.6°C 38% 4.6 mph WSW7.4 kmh WSW 5.8 mph9.3 kmh 30.14 in1020.7 mb - 0.00 in0.0 mm 0.00 in0.0 mm
02:40 PM 74.6°F23.7°C 48.7°F9.3°C 40% 4.6 mph WNW7.4 kmh WNW 3.5 mph5.6 kmh 30.15 in1021.0 mb - 0.00 in0.0 mm 0.00 in0.0 mm
02:30 PM 74.9°F23.8°C 48.9°F9.4°C 40% 4.6 mph WNW7.4 kmh WNW 5.8 mph9.3 kmh 30.14 in1020.7 mb - 0.00 in0.0 mm 0.00 in0.0 mm
02:20 PM 74.3°F23.5°C 48.4°F9.1°C 40% 4.6 mph WNW7.4 kmh WNW 5.8 mph9.3 kmh 30.14 in1020.7 mb - 0.00 in0.0 mm 0.00 in0.0 mm
02:10 PM 74.4°F23.6°C 49.8°F9.9°C 42% 2.3 mph WSW3.7 kmh WSW 10.4 mph16.7 kmh 30.15 in1021.0 mb - 0.00 in0.0 mm 0.00 in0.0 mm
02:00 PM 74.0°F23.3°C 48.8°F9.3°C 41% 4.6 mph NW7.4 kmh NW 5.8 mph9.3 kmh 30.15 in1021.0 mb - 0.00 in0.0 mm 0.00 in0.0 mm
01:50 PM 73.1°F22.8°C 49.3°F9.6°C 43% 4.6 mph W7.4 kmh W 6.9 mph11.1 kmh 30.15 in1021.0 mb - 0.00 in0.0 mm 0.00 in0.0 mm
01:40 PM 73.0°F22.8°C 49.8°F9.9°C 44% 9.2 mph WSW14.8 kmh WSW 11.5 mph18.5 kmh 30.15 in1021.0 mb - 0.00 in0.0 mm 0.00 in0.0 mm
01:30 PM 72.8°F22.7°C 49.6°F9.8°C 44% 3.5 mph W5.6 kmh W 11.5 mph18.5 kmh 30.15 in1021.0 mb - 0.00 in0.0 mm 0.00 in0.0 mm
01:20 PM 72.7°F22.6°C 49.5°F9.7°C 44% 4.6 mph NW7.4 kmh NW 3.5 mph5.6 kmh 30.15 in1021.0 mb - 0.00 in0.0 mm 0.00 in0.0 mm
01:10 PM 72.8°F22.7°C 50.2°F10.1°C 45% 3.5 mph NW5.6 kmh NW 3.5 mph5.6 kmh 30.15 in1021.0 mb - 0.00 in0.0 mm 0.00 in0.0 mm
01:00 PM 72.7°F22.6°C 50.1°F10.1°C 45% 3.5 mph W5.6 kmh W 5.8 mph9.3 kmh 30.16 in1021.3 mb - 0.00 in0.0 mm 0.00 in0.0 mm
12:50 PM 73.3°F22.9°C 50.1°F10.1°C 44% 3.5 mph W5.6 kmh W 4.6 mph7.4 kmh 30.16 in1021.3 mb - 0.00 in0.0 mm 0.00 in0.0 mm
12:40 PM 72.2°F22.3°C 47.2°F8.4°C 41% 2.3 mph SSW3.7 kmh SSW 3.5 mph5.6 kmh 30.16 in1021.3 mb - 0.00 in0.0 mm 0.00 in0.0 mm
12:30 PM 71.5°F21.9°C 47.8°F8.8°C 43% 4.6 mph WNW7.4 kmh WNW 5.8 mph9.3 kmh 30.16 in1021.3 mb - 0.00 in0.0 mm 0.00 in0.0 mm
12:20 PM 71.6°F22.0°C 46.6°F8.1°C 41% 3.5 mph W5.6 kmh W 3.5 mph5.6 kmh 30.17 in1021.7 mb - 0.00 in0.0 mm 0.00 in0.0 mm
12:10 PM 70.7°F21.5°C 50.6°F10.3°C 49% Calm Calm 1.2 mph1.9 kmh 30.17 in1021.7 mb - 0.00 in0.0 mm 0.00 in0.0 mm
12:00 PM 69.5°F20.8°C 51.1°F10.6°C 52% Calm Calm -- 30.18 in1022.0 mb - 0.00 in0.0 mm 0.00 in0.0 mm
11:50 AM 69.3°F20.7°C 52.5°F11.4°C 55% 3.5 mph WNW5.6 kmh WNW 4.6 mph7.4 kmh 30.18 in1022.0 mb - 0.00 in0.0 mm 0.00 in0.0 mm
11:40 AM 68.3°F20.2°C 51.0°F10.6°C 54% 6.9 mph WSW11.1 kmh WSW 9.2 mph14.8 kmh 30.18 in1022.0 mb - 0.00 in0.0 mm 0.00 in0.0 mm
11:30 AM 68.3°F20.2°C 52.9°F11.6°C 58% 4.6 mph W7.4 kmh W 8.1 mph13.0 kmh 30.19 in1022.4 mb - 0.00 in0.0 mm 0.00 in0.0 mm
11:20 AM 67.3°F19.6°C 51.1°F10.6°C 56% 6.9 mph W11.1 kmh W 8.1 mph13.0 kmh 30.18 in1022.0 mb - 0.00 in0.0 mm 0.00 in0.0 mm
11:10 AM 67.6°F19.8°C 51.8°F11.0°C 57% 6.9 mph WSW11.1 kmh WSW 11.5 mph18.5 kmh 30.18 in1022.0 mb - 0.00 in0.0 mm 0.00 in0.0 mm
11:00 AM 66.9°F19.4°C 52.6°F11.4°C 60% 4.6 mph W7.4 kmh W 5.8 mph9.3 kmh 30.19 in1022.4 mb - 0.00 in0.0 mm 0.00 in0.0 mm
10:50 AM 66.5°F19.2°C 52.6°F11.4°C 61% 5.8 mph W9.3 kmh W 8.1 mph13.0 kmh 30.19 in1022.4 mb - 0.00 in0.0 mm 0.00 in0.0 mm
10:40 AM 66.1°F18.9°C 52.2°F11.2°C 61% 2.3 mph WSW3.7 kmh WSW 5.8 mph9.3 kmh 30.19 in1022.4 mb - 0.00 in0.0 mm 0.00 in0.0 mm
10:30 AM 65.9°F18.8°C 52.9°F11.6°C 63% 3.5 mph W5.6 kmh W 5.8 mph9.3 kmh 30.19 in1022.4 mb - 0.00 in0.0 mm 0.00 in0.0 mm
10:20 AM 65.6°F18.7°C 53.1°F11.7°C 64% 4.6 mph WSW7.4 kmh WSW 4.6 mph7.4 kmh 30.19 in1022.4 mb - 0.00 in0.0 mm 0.00 in0.0 mm
10:10 AM 65.3°F18.5°C 54.5°F12.5°C 68% Calm Calm 2.3 mph3.7 kmh 30.19 in1022.4 mb - 0.00 in0.0 mm 0.00 in0.0 mm
10:00 AM 64.3°F17.9°C 55.1°F12.8°C 72% 1.2 mph WSW1.9 kmh WSW 2.3 mph3.7 kmh 30.19 in1022.4 mb - 0.00 in0.0 mm 0.00 in0.0 mm
09:50 AM 63.4°F17.4°C 54.6°F12.6°C 73% 3.5 mph WSW5.6 kmh WSW 3.5 mph5.6 kmh 30.20 in1022.7 mb - 0.00 in0.0 mm 0.00 in0.0 mm
09:40 AM 62.8°F17.1°C 55.1°F12.8°C 76% 1.2 mph NW1.9 kmh NW 2.3 mph3.7 kmh 30.20 in1022.7 mb - 0.00 in0.0 mm 0.00 in0.0 mm
09:30 AM 62.3°F16.8°C 54.6°F12.6°C 76% 4.6 mph WSW7.4 kmh WSW 4.6 mph7.4 kmh 30.19 in1022.4 mb - 0.00 in0.0 mm 0.00 in0.0 mm
09:20 AM 62.0°F16.7°C 54.3°F12.4°C 76% 2.3 mph W3.7 kmh W 3.5 mph5.6 kmh 30.19 in1022.4 mb - 0.00 in0.0 mm 0.00 in0.0 mm
09:10 AM 61.8°F16.6°C 54.6°F12.6°C 77% 3.5 mph WSW5.6 kmh WSW 4.6 mph7.4 kmh 30.19 in1022.4 mb - 0.00 in0.0 mm 0.00 in0.0 mm
09:00 AM 61.9°F16.6°C 53.9°F12.2°C 75% 2.3 mph W3.7 kmh W 3.5 mph5.6 kmh 30.18 in1022.0 mb - 0.00 in0.0 mm 0.00 in0.0 mm
08:50 AM 62.3°F16.8°C 54.3°F12.4°C 75% 1.2 mph SSE1.9 kmh SSE 2.3 mph3.7 kmh 30.18 in1022.0 mb - 0.00 in0.0 mm 0.00 in0.0 mm
08:40 AM 61.8°F16.6°C 54.1°F12.3°C 76% 1.2 mph SE1.9 kmh SE 3.5 mph5.6 kmh 30.18 in1022.0 mb - 0.00 in0.0 mm 0.00 in0.0 mm
08:30 AM 61.3°F16.3°C 53.7°F12.1°C 76% 1.2 mph SE1.9 kmh SE 2.3 mph3.7 kmh 30.17 in1021.7 mb - 0.00 in0.0 mm 0.00 in0.0 mm
08:20 AM 61.6°F16.4°C 54.0°F12.2°C 76% 1.2 mph SSE1.9 kmh SSE 3.5 mph5.6 kmh 30.18 in1022.0 mb - 0.00 in0.0 mm 0.00 in0.0 mm
08:10 AM 62.1°F16.7°C 53.3°F11.8°C 73% 1.2 mph S1.9 kmh S 1.2 mph1.9 kmh 30.17 in1021.7 mb - 0.00 in0.0 mm 0.00 in0.0 mm
08:00 AM 60.7°F15.9°C 53.5°F11.9°C 77% Calm Calm -- 30.17 in1021.7 mb - 0.00 in0.0 mm 0.00 in0.0 mm
07:50 AM 59.8°F15.4°C 52.9°F11.6°C 78% Calm Calm -- 30.17 in1021.7 mb - 0.00 in0.0 mm 0.00 in0.0 mm
07:40 AM 59.5°F15.3°C 52.6°F11.4°C 78% Calm Calm 1.2 mph1.9 kmh 30.17 in1021.7 mb - 0.00 in0.0 mm 0.00 in0.0 mm
07:30 AM 58.2°F14.6°C 52.3°F11.3°C 81% Calm Calm -- 30.17 in1021.7 mb - 0.00 in0.0 mm 0.00 in0.0 mm
07:20 AM 57.0°F13.9°C 51.6°F10.9°C 82% Calm Calm -- 30.16 in1021.3 mb - 0.00 in0.0 mm 0.00 in0.0 mm
07:10 AM 56.4°F13.6°C 51.0°F10.6°C 82% 1.2 mph SSE1.9 kmh SSE 1.2 mph1.9 kmh 30.16 in1021.3 mb - 0.00 in0.0 mm 0.00 in0.0 mm
07:00 AM 55.1°F12.8°C 50.3°F10.2°C 84% Calm Calm -- 30.16 in1021.3 mb - 0.00 in0.0 mm 0.00 in0.0 mm
06:50 AM 54.9°F12.7°C 49.8°F9.9°C 83% Calm Calm -- 30.15 in1021.0 mb - 0.00 in0.0 mm 0.00 in0.0 mm
06:40 AM 55.6°F13.1°C 50.2°F10.1°C 82% 1.2 mph S1.9 kmh S 1.2 mph1.9 kmh 30.15 in1021.0 mb - 0.00 in0.0 mm 0.00 in0.0 mm
06:30 AM 55.2°F12.9°C 50.5°F10.3°C 84% Calm Calm -- 30.15 in1021.0 mb - 0.00 in0.0 mm 0.00 in0.0 mm
06:20 AM 54.8°F12.7°C 49.7°F9.8°C 83% Calm Calm -- 30.15 in1021.0 mb - 0.00 in0.0 mm 0.00 in0.0 mm
06:10 AM 55.2°F12.9°C 50.1°F10.1°C 83% Calm Calm 1.2 mph1.9 kmh 30.15 in1021.0 mb - 0.00 in0.0 mm 0.00 in0.0 mm
06:00 AM 55.1°F12.8°C 50.0°F10.0°C 83% Calm Calm 1.2 mph1.9 kmh 30.15 in1021.0 mb - 0.00 in0.0 mm 0.00 in0.0 mm
05:50 AM 55.3°F12.9°C 50.2°F10.1°C 83% Calm Calm 1.2 mph1.9 kmh 30.15 in1021.0 mb - 0.00 in0.0 mm 0.00 in0.0 mm
05:40 AM 55.1°F12.8°C 50.0°F10.0°C 83% Calm Calm -- 30.15 in1021.0 mb - 0.00 in0.0 mm 0.00 in0.0 mm
05:30 AM 55.0°F12.8°C 49.9°F9.9°C 83% Calm Calm -- 30.14 in1020.7 mb - 0.00 in0.0 mm 0.00 in0.0 mm
05:20 AM 55.2°F12.9°C 50.2°F10.1°C 83% Calm Calm 1.2 mph1.9 kmh 30.13 in1020.3 mb - 0.00 in0.0 mm 0.00 in0.0 mm
05:10 AM 54.9°F12.7°C 50.1°F10.1°C 84% Calm Calm 1.2 mph1.9 kmh 30.13 in1020.3 mb - 0.00 in0.0 mm 0.00 in0.0 mm
05:00 AM 55.4°F13.0°C 50.3°F10.2°C 83% 1.2 mph WSW1.9 kmh WSW 1.2 mph1.9 kmh 30.13 in1020.3 mb - 0.00 in0.0 mm 0.00 in0.0 mm
04:50 AM 54.6°F12.6°C 49.9°F9.9°C 84% Calm Calm 1.2 mph1.9 kmh 30.13 in1020.3 mb - 0.00 in0.0 mm 0.00 in0.0 mm
04:40 AM 54.9°F12.7°C 50.1°F10.1°C 84% Calm Calm 1.2 mph1.9 kmh 30.13 in1020.3 mb - 0.00 in0.0 mm 0.00 in0.0 mm
04:30 AM 55.5°F13.1°C 50.4°F10.2°C 83% 1.2 mph W1.9 kmh W 1.2 mph1.9 kmh 30.13 in1020.3 mb - 0.00 in0.0 mm 0.00 in0.0 mm
04:20 AM 55.1°F12.8°C 50.4°F10.2°C 84% 1.2 mph NNW1.9 kmh NNW 1.2 mph1.9 kmh 30.13 in1020.3 mb - 0.00 in0.0 mm 0.00 in0.0 mm
04:10 AM 55.1°F12.8°C 50.0°F10.0°C 83% Calm Calm -- 30.12 in1020.0 mb - 0.00 in0.0 mm 0.00 in0.0 mm
04:00 AM 55.5°F13.1°C 50.1°F10.1°C 82% Calm Calm 1.2 mph1.9 kmh 30.12 in1020.0 mb - 0.00 in0.0 mm 0.00 in0.0 mm
03:50 AM 56.1°F13.4°C 50.3°F10.2°C 81% Calm Calm 1.2 mph1.9 kmh 30.12 in1020.0 mb - 0.00 in0.0 mm 0.00 in0.0 mm
03:40 AM 56.4°F13.6°C 50.6°F10.3°C 81% 1.2 mph NW1.9 kmh NW 1.2 mph1.9 kmh 30.12 in1020.0 mb - 0.00 in0.0 mm 0.00 in0.0 mm
03:30 AM 56.0°F13.3°C 50.6°F10.3°C 82% 1.2 mph NW1.9 kmh NW 2.3 mph3.7 kmh 30.12 in1020.0 mb - 0.00 in0.0 mm 0.00 in0.0 mm
03:20 AM 55.0°F12.8°C 50.3°F10.2°C 84% 1.2 mph NW1.9 kmh NW 1.2 mph1.9 kmh 30.13 in1020.3 mb - 0.00 in0.0 mm 0.00 in0.0 mm
03:10 AM 55.0°F12.8°C 49.9°F9.9°C 83% 1.2 mph N1.9 kmh N 2.3 mph3.7 kmh 30.12 in1020.0 mb - 0.00 in0.0 mm 0.00 in0.0 mm
03:00 AM 54.9°F12.7°C 50.5°F10.3°C 85% Calm Calm -- 30.12 in1020.0 mb - 0.00 in0.0 mm 0.00 in0.0 mm
02:50 AM 54.9°F12.7°C 50.5°F10.3°C 85% Calm Calm -- 30.12 in1020.0 mb - 0.00 in0.0 mm 0.00 in0.0 mm
02:40 AM 55.1°F12.8°C 51.0°F10.6°C 86% Calm Calm -- 30.12 in1020.0 mb - 0.00 in0.0 mm 0.00 in0.0 mm
02:30 AM 54.9°F12.7°C 50.5°F10.3°C 85% Calm Calm -- 30.12 in1020.0 mb - 0.00 in0.0 mm 0.00 in0.0 mm
02:20 AM 55.0°F12.8°C 50.6°F10.3°C 85% Calm Calm -- 30.12 in1020.0 mb - 0.00 in0.0 mm 0.00 in0.0 mm
02:10 AM 55.0°F12.8°C 50.6°F10.3°C 85% Calm Calm 1.2 mph1.9 kmh 30.12 in1020.0 mb - 0.00 in0.0 mm 0.00 in0.0 mm
02:00 AM 55.1°F12.8°C 50.4°F10.2°C 84% Calm Calm -- 30.12 in1020.0 mb - 0.00 in0.0 mm 0.00 in0.0 mm
01:50 AM 55.5°F13.1°C 50.8°F10.4°C 84% Calm Calm 1.2 mph1.9 kmh 30.12 in1020.0 mb - 0.00 in0.0 mm 0.00 in0.0 mm
01:40 AM 55.7°F13.2°C 50.9°F10.5°C 84% Calm Calm -- 30.12 in1020.0 mb - 0.00 in0.0 mm 0.00 in0.0 mm
01:30 AM 55.5°F13.1°C 51.1°F10.6°C 85% Calm Calm -- 30.12 in1020.0 mb - 0.00 in0.0 mm 0.00 in0.0 mm
01:20 AM 55.9°F13.3°C 51.2°F10.7°C 84% Calm Calm -- 30.12 in1020.0 mb - 0.00 in0.0 mm 0.00 in0.0 mm
01:10 AM 56.3°F13.5°C 51.5°F10.8°C 84% Calm Calm -- 30.13 in1020.3 mb - 0.00 in0.0 mm 0.00 in0.0 mm
01:00 AM 56.6°F13.7°C 51.5°F10.8°C 83% Calm Calm 1.2 mph1.9 kmh 30.13 in1020.3 mb - 0.00 in0.0 mm 0.00 in0.0 mm
12:50 AM 57.4°F14.1°C 51.3°F10.7°C 80% 1.2 mph ESE1.9 kmh ESE 1.2 mph1.9 kmh 30.13 in1020.3 mb - 0.00 in0.0 mm 0.00 in0.0 mm
12:40 AM 58.5°F14.7°C 52.0°F11.1°C 79% Calm Calm 2.3 mph3.7 kmh 30.13 in1020.3 mb - 0.00 in0.0 mm 0.00 in0.0 mm
12:30 AM 59.1°F15.1°C 51.9°F11.1°C 77% Calm Calm 1.2 mph1.9 kmh 30.13 in1020.3 mb - 0.00 in0.0 mm 0.00 in0.0 mm
12:20 AM 59.1°F15.1°C 52.2°F11.2°C 78% 4.6 mph NW7.4 kmh NW 5.8 mph9.3 kmh 30.13 in1020.3 mb - 0.00 in0.0 mm 0.00 in0.0 mm
12:10 AM 58.2°F14.6°C 52.1°F11.2°C 80% 2.3 mph NW3.7 kmh NW 5.8 mph9.3 kmh 30.12 in1020.0 mb - 0.00 in0.0 mm 0.00 in0.0 mm
12:00 AM 58.2°F14.6°C 52.4°F11.3°C 81% 1.2 mph NW1.9 kmh NW 3.5 mph5.6 kmh 30.12 in1020.0 mb - 0.00 in0.0 mm 0.00 in0.0 mm